sensor_id;sensor_type;location;lat;lon;timestamp;P1;durP1;ratioP1;P2;durP2;ratioP2
66087;SDS011;52872;52.994;6.940;2024-03-23T00:55:40;16.40;;;6.05;;
66087;SDS011;52872;52.994;6.940;2024-03-23T00:58:07;18.77;;;5.88;;
66087;SDS011;52872;52.994;6.940;2024-03-23T01:00:34;13.52;;;5.15;;
66087;SDS011;52872;52.994;6.940;2024-03-23T01:03:00;12.50;;;4.90;;
66087;SDS011;52872;52.994;6.940;2024-03-23T01:05:26;13.45;;;3.97;;
66087;SDS011;52872;52.994;6.940;2024-03-23T01:07:52;15.43;;;4.32;;
66087;SDS011;52872;52.994;6.940;2024-03-23T01:10:18;22.15;;;6.03;;
66087;SDS011;52872;52.994;6.940;2024-03-23T01:12:44;14.10;;;7.15;;
66087;SDS011;52872;52.994;6.940;2024-03-23T01:15:10;10.32;;;4.05;;
66087;SDS011;52872;52.994;6.940;2024-03-23T01:17:36;24.08;;;8.15;;
66087;SDS011;52872;52.994;6.940;2024-03-23T01:20:02;12.80;;;4.80;;
66087;SDS011;52872;52.994;6.940;2024-03-23T01:22:28;13.05;;;5.15;;
66087;SDS011;52872;52.994;6.940;2024-03-23T01:24:54;12.52;;;5.28;;
66087;SDS011;52872;52.994;6.940;2024-03-23T01:27:20;18.00;;;4.35;;
66087;SDS011;52872;52.994;6.940;2024-03-23T01:29:46;16.90;;;5.45;;
66087;SDS011;52872;52.994;6.940;2024-03-23T01:32:12;14.43;;;4.00;;
66087;SDS011;52872;52.994;6.940;2024-03-23T01:34:38;8.77;;;3.25;;
66087;SDS011;52872;52.994;6.940;2024-03-23T01:37:04;14.95;;;4.20;;
66087;SDS011;52872;52.994;6.940;2024-03-23T01:39:30;21.95;;;4.38;;
66087;SDS011;52872;52.994;6.940;2024-03-23T01:41:56;21.77;;;4.88;;
66087;SDS011;52872;52.994;6.940;2024-03-23T01:44:22;9.00;;;3.92;;
66087;SDS011;52872;52.994;6.940;2024-03-23T01:46:48;12.43;;;5.80;;
66087;SDS011;52872;52.994;6.940;2024-03-23T01:49:14;16.60;;;4.55;;
66087;SDS011;52872;52.994;6.940;2024-03-23T01:51:41;20.02;;;5.65;;
66087;SDS011;52872;52.994;6.940;2024-03-23T01:54:08;16.40;;;5.03;;
66087;SDS011;52872;52.994;6.940;2024-03-23T01:56:35;14.75;;;3.33;;
66087;SDS011;52872;52.994;6.940;2024-03-23T01:59:02;11.82;;;4.30;;
66087;SDS011;52872;52.994;6.940;2024-03-23T02:01:28;16.45;;;5.40;;
66087;SDS011;52872;52.994;6.940;2024-03-23T02:03:54;18.52;;;5.82;;
66087;SDS011;52872;52.994;6.940;2024-03-23T02:06:21;13.13;;;4.25;;
66087;SDS011;52872;52.994;6.940;2024-03-23T02:08:47;10.88;;;4.57;;
66087;SDS011;52872;52.994;6.940;2024-03-23T02:11:14;17.73;;;5.68;;
66087;SDS011;52872;52.994;6.940;2024-03-23T02:13:40;17.92;;;8.38;;
66087;SDS011;52872;52.994;6.940;2024-03-23T02:16:06;19.10;;;4.70;;
66087;SDS011;52872;52.994;6.940;2024-03-23T02:18:32;14.95;;;6.97;;
66087;SDS011;52872;52.994;6.940;2024-03-23T02:20:58;13.20;;;4.72;;
66087;SDS011;52872;52.994;6.940;2024-03-23T02:23:24;16.00;;;5.65;;
66087;SDS011;52872;52.994;6.940;2024-03-23T02:25:51;14.25;;;5.35;;
66087;SDS011;52872;52.994;6.940;2024-03-23T02:28:18;8.77;;;3.22;;
66087;SDS011;52872;52.994;6.940;2024-03-23T02:30:45;11.93;;;4.18;;
66087;SDS011;52872;52.994;6.940;2024-03-23T02:33:11;16.25;;;3.75;;
66087;SDS011;52872;52.994;6.940;2024-03-23T02:35:37;2.92;;;2.63;;
66087;SDS011;52872;52.994;6.940;2024-03-23T02:38:03;13.70;;;4.70;;
66087;SDS011;52872;52.994;6.940;2024-03-23T02:40:29;19.00;;;4.18;;
66087;SDS011;52872;52.994;6.940;2024-03-23T02:42:55;7.53;;;2.95;;
66087;SDS011;52872;52.994;6.940;2024-03-23T02:45:21;12.88;;;4.22;;
66087;SDS011;52872;52.994;6.940;2024-03-23T02:47:47;13.98;;;4.40;;
66087;SDS011;52872;52.994;6.940;2024-03-23T02:50:20;13.85;;;5.30;;
66087;SDS011;52872;52.994;6.940;2024-03-23T02:52:46;20.08;;;7.07;;
66087;SDS011;52872;52.994;6.940;2024-03-23T02:55:13;11.88;;;3.97;;
66087;SDS011;52872;52.994;6.940;2024-03-23T02:57:40;17.35;;;4.55;;
66087;SDS011;52872;52.994;6.940;2024-03-23T03:00:06;16.30;;;4.75;;
66087;SDS011;52872;52.994;6.940;2024-03-23T03:02:33;13.57;;;4.18;;
66087;SDS011;52872;52.994;6.940;2024-03-23T03:04:59;22.55;;;5.05;;
66087;SDS011;52872;52.994;6.940;2024-03-23T03:07:25;15.30;;;5.43;;
66087;SDS011;52872;52.994;6.940;2024-03-23T03:09:51;12.57;;;5.00;;
66087;SDS011;52872;52.994;6.940;2024-03-23T03:12:17;25.52;;;6.43;;
66087;SDS011;52872;52.994;6.940;2024-03-23T03:14:43;5.88;;;5.32;;
66087;SDS011;52872;52.994;6.940;2024-03-23T03:17:09;8.65;;;4.50;;
66087;SDS011;52872;52.994;6.940;2024-03-23T03:19:35;15.65;;;4.78;;
66087;SDS011;52872;52.994;6.940;2024-03-23T03:22:01;10.35;;;4.43;;
66087;SDS011;52872;52.994;6.940;2024-03-23T03:24:27;9.90;;;4.55;;
66087;SDS011;52872;52.994;6.940;2024-03-23T03:26:53;11.85;;;4.28;;
66087;SDS011;52872;52.994;6.940;2024-03-23T03:29:19;11.00;;;2.75;;
66087;SDS011;52872;52.994;6.940;2024-03-23T03:31:45;20.65;;;6.40;;
66087;SDS011;52872;52.994;6.940;2024-03-23T03:34:11;6.40;;;3.15;;
66087;SDS011;52872;52.994;6.940;2024-03-23T03:36:37;9.55;;;3.47;;
66087;SDS011;52872;52.994;6.940;2024-03-23T03:39:03;3.60;;;2.03;;
66087;SDS011;52872;52.994;6.940;2024-03-23T03:41:30;7.10;;;3.83;;
66087;SDS011;52872;52.994;6.940;2024-03-23T03:43:57;10.05;;;3.97;;
66087;SDS011;52872;52.994;6.940;2024-03-23T03:46:27;5.60;;;4.05;;
66087;SDS011;52872;52.994;6.940;2024-03-23T03:48:54;16.33;;;4.75;;
66087;SDS011;52872;52.994;6.940;2024-03-23T03:51:20;17.70;;;4.35;;
66087;SDS011;52872;52.994;6.940;2024-03-23T03:53:46;4.78;;;3.50;;
66087;SDS011;52872;52.994;6.940;2024-03-23T03:56:12;10.82;;;4.63;;
66087;SDS011;52872;52.994;6.940;2024-03-23T03:58:38;11.88;;;6.47;;
66087;SDS011;52872;52.994;6.940;2024-03-23T04:01:05;8.02;;;3.88;;
66087;SDS011;52872;52.994;6.940;2024-03-23T04:03:31;16.90;;;4.00;;
66087;SDS011;52872;52.994;6.940;2024-03-23T04:05:57;9.57;;;3.88;;
66087;SDS011;52872;52.994;6.940;2024-03-23T04:08:23;16.55;;;5.00;;
66087;SDS011;52872;52.994;6.940;2024-03-23T04:10:50;4.45;;;3.05;;
66087;SDS011;52872;52.994;6.940;2024-03-23T04:13:16;10.90;;;5.93;;
66087;SDS011;52872;52.994;6.940;2024-03-23T04:15:42;13.80;;;4.68;;
66087;SDS011;52872;52.994;6.940;2024-03-23T04:18:08;11.70;;;4.35;;
66087;SDS011;52872;52.994;6.940;2024-03-23T04:20:34;16.30;;;4.32;;
66087;SDS011;52872;52.994;6.940;2024-03-23T04:23:00;8.68;;;3.30;;
66087;SDS011;52872;52.994;6.940;2024-03-23T04:25:26;14.60;;;4.38;;
66087;SDS011;52872;52.994;6.940;2024-03-23T04:27:52;5.82;;;4.60;;
66087;SDS011;52872;52.994;6.940;2024-03-23T04:30:18;8.18;;;4.97;;
66087;SDS011;52872;52.994;6.940;2024-03-23T04:32:44;11.00;;;3.97;;
66087;SDS011;52872;52.994;6.940;2024-03-23T04:35:10;8.57;;;3.88;;
66087;SDS011;52872;52.994;6.940;2024-03-23T04:37:37;13.38;;;6.38;;
66087;SDS011;52872;52.994;6.940;2024-03-23T04:40:03;11.70;;;4.78;;
66087;SDS011;52872;52.994;6.940;2024-03-23T04:42:30;5.97;;;3.13;;
66087;SDS011;52872;52.994;6.940;2024-03-23T04:44:57;11.55;;;4.05;;
66087;SDS011;52872;52.994;6.940;2024-03-23T04:47:23;9.90;;;4.70;;
66087;SDS011;52872;52.994;6.940;2024-03-23T04:49:49;13.70;;;5.80;;
66087;SDS011;52872;52.994;6.940;2024-03-23T04:52:15;5.15;;;3.15;;
66087;SDS011;52872;52.994;6.940;2024-03-23T04:54:42;11.80;;;6.05;;
66087;SDS011;52872;52.994;6.940;2024-03-23T04:57:08;15.27;;;4.03;;
66087;SDS011;52872;52.994;6.940;2024-03-23T04:59:34;10.75;;;5.50;;
66087;SDS011;52872;52.994;6.940;2024-03-23T05:02:00;15.50;;;4.47;;
66087;SDS011;52872;52.994;6.940;2024-03-23T05:04:26;4.88;;;3.30;;
66087;SDS011;52872;52.994;6.940;2024-03-23T05:06:52;9.60;;;3.47;;
66087;SDS011;52872;52.994;6.940;2024-03-23T05:09:19;2.85;;;2.58;;
66087;SDS011;52872;52.994;6.940;2024-03-23T05:11:45;13.57;;;5.38;;
66087;SDS011;52872;52.994;6.940;2024-03-23T05:14:14;9.85;;;4.93;;
66087;SDS011;52872;52.994;6.940;2024-03-23T05:16:40;7.05;;;5.03;;
66087;SDS011;52872;52.994;6.940;2024-03-23T05:19:06;10.70;;;4.60;;
66087;SDS011;52872;52.994;6.940;2024-03-23T05:21:32;17.98;;;6.40;;
66087;SDS011;52872;52.994;6.940;2024-03-23T05:23:58;6.20;;;3.15;;
66087;SDS011;52872;52.994;6.940;2024-03-23T05:26:24;5.53;;;4.97;;
66087;SDS011;52872;52.994;6.940;2024-03-23T05:28:50;7.70;;;5.15;;
66087;SDS011;52872;52.994;6.940;2024-03-23T05:31:26;5.97;;;2.47;;
66087;SDS011;52872;52.994;6.940;2024-03-23T05:33:53;4.75;;;3.22;;
66087;SDS011;52872;52.994;6.940;2024-03-23T05:36:20;5.85;;;2.72;;
66087;SDS011;52872;52.994;6.940;2024-03-23T05:38:46;6.93;;;4.15;;
66087;SDS011;52872;52.994;6.940;2024-03-23T05:41:12;14.48;;;5.72;;
66087;SDS011;52872;52.994;6.940;2024-03-23T05:43:38;7.65;;;5.10;;
66087;SDS011;52872;52.994;6.940;2024-03-23T05:46:04;9.93;;;4.47;;
66087;SDS011;52872;52.994;6.940;2024-03-23T05:48:36;7.50;;;4.18;;
66087;SDS011;52872;52.994;6.940;2024-03-23T05:51:02;10.77;;;5.07;;
66087;SDS011;52872;52.994;6.940;2024-03-23T05:53:28;10.52;;;4.45;;
66087;SDS011;52872;52.994;6.940;2024-03-23T05:56:02;10.07;;;3.05;;
66087;SDS011;52872;52.994;6.940;2024-03-23T05:58:32;4.63;;;3.00;;
66087;SDS011;52872;52.994;6.940;2024-03-23T06:00:59;10.32;;;4.45;;
66087;SDS011;52872;52.994;6.940;2024-03-23T06:03:27;3.47;;;2.88;;
66087;SDS011;52872;52.994;6.940;2024-03-23T06:05:53;10.52;;;3.72;;
66087;SDS011;52872;52.994;6.940;2024-03-23T06:08:20;4.00;;;2.90;;
66087;SDS011;52872;52.994;6.940;2024-03-23T06:10:46;5.32;;;3.50;;
66087;SDS011;52872;52.994;6.940;2024-03-23T06:13:13;10.23;;;3.90;;
66087;SDS011;52872;52.994;6.940;2024-03-23T06:15:39;8.32;;;3.97;;
66087;SDS011;52872;52.994;6.940;2024-03-23T06:18:05;6.80;;;3.20;;
66087;SDS011;52872;52.994;6.940;2024-03-23T06:20:33;3.55;;;2.72;;
66087;SDS011;52872;52.994;6.940;2024-03-23T06:23:00;8.52;;;4.38;;
66087;SDS011;52872;52.994;6.940;2024-03-23T06:25:27;8.40;;;3.78;;
66087;SDS011;52872;52.994;6.940;2024-03-23T06:27:53;9.77;;;4.05;;
66087;SDS011;52872;52.994;6.940;2024-03-23T06:30:20;8.18;;;4.60;;
66087;SDS011;52872;52.994;6.940;2024-03-23T06:32:46;5.72;;;4.53;;
66087;SDS011;52872;52.994;6.940;2024-03-23T06:35:12;6.50;;;4.57;;
66087;SDS011;52872;52.994;6.940;2024-03-23T06:37:38;6.00;;;3.78;;
66087;SDS011;52872;52.994;6.940;2024-03-23T06:40:06;10.30;;;4.05;;
66087;SDS011;52872;52.994;6.940;2024-03-23T06:42:35;8.15;;;3.30;;
66087;SDS011;52872;52.994;6.940;2024-03-23T06:45:02;12.50;;;3.72;;
66087;SDS011;52872;52.994;6.940;2024-03-23T06:47:30;9.48;;;3.75;;
66087;SDS011;52872;52.994;6.940;2024-03-23T06:49:56;7.53;;;2.35;;
66087;SDS011;52872;52.994;6.940;2024-03-23T06:52:22;7.22;;;2.50;;
66087;SDS011;52872;52.994;6.940;2024-03-23T06:54:48;9.32;;;2.13;;
66087;SDS011;52872;52.994;6.940;2024-03-23T06:57:14;3.75;;;2.67;;
66087;SDS011;52872;52.994;6.940;2024-03-23T06:59:40;3.17;;;2.85;;
66087;SDS011;52872;52.994;6.940;2024-03-23T07:02:06;7.80;;;3.35;;
66087;SDS011;52872;52.994;6.940;2024-03-23T07:04:35;5.53;;;2.50;;
66087;SDS011;52872;52.994;6.940;2024-03-23T07:07:01;4.65;;;3.47;;
66087;SDS011;52872;52.994;6.940;2024-03-23T07:09:28;4.53;;;2.85;;
66087;SDS011;52872;52.994;6.940;2024-03-23T07:11:56;2.53;;;1.52;;
66087;SDS011;52872;52.994;6.940;2024-03-23T07:14:25;1.52;;;1.42;;
66087;SDS011;52872;52.994;6.940;2024-03-23T07:16:51;4.38;;;2.90;;
66087;SDS011;52872;52.994;6.940;2024-03-23T07:19:17;4.45;;;2.72;;
66087;SDS011;52872;52.994;6.940;2024-03-23T07:21:44;5.57;;;3.78;;
66087;SDS011;52872;52.994;6.940;2024-03-23T07:24:10;3.55;;;2.65;;
66087;SDS011;52872;52.994;6.940;2024-03-23T07:26:37;7.35;;;1.85;;
66087;SDS011;52872;52.994;6.940;2024-03-23T07:29:04;3.50;;;3.05;;
66087;SDS011;52872;52.994;6.940;2024-03-23T07:31:30;5.05;;;2.95;;
66087;SDS011;52872;52.994;6.940;2024-03-23T07:33:56;9.00;;;2.75;;
66087;SDS011;52872;52.994;6.940;2024-03-23T07:36:22;3.90;;;1.58;;
66087;SDS011;52872;52.994;6.940;2024-03-23T07:38:48;5.28;;;2.60;;
66087;SDS011;52872;52.994;6.940;2024-03-23T07:41:15;1.85;;;1.75;;
66087;SDS011;52872;52.994;6.940;2024-03-23T07:43:43;4.63;;;2.58;;
66087;SDS011;52872;52.994;6.940;2024-03-23T07:46:10;5.05;;;3.05;;
66087;SDS011;52872;52.994;6.940;2024-03-23T07:48:37;8.40;;;2.50;;
66087;SDS011;52872;52.994;6.940;2024-03-23T07:53:32;2.42;;;2.13;;
66087;SDS011;52872;52.994;6.940;2024-03-23T07:55:59;3.90;;;1.50;;
66087;SDS011;52872;52.994;6.940;2024-03-23T07:58:26;3.80;;;1.65;;
66087;SDS011;52872;52.994;6.940;2024-03-23T08:00:52;3.40;;;1.40;;
66087;SDS011;52872;52.994;6.940;2024-03-23T08:03:19;4.88;;;2.60;;
66087;SDS011;52872;52.994;6.940;2024-03-23T08:05:45;4.30;;;2.20;;
66087;SDS011;52872;52.994;6.940;2024-03-23T08:08:11;2.13;;;1.88;;
66087;SDS011;52872;52.994;6.940;2024-03-23T08:10:46;4.00;;;2.88;;
66087;SDS011;52872;52.994;6.940;2024-03-23T08:13:13;2.97;;;2.67;;
66087;SDS011;52872;52.994;6.940;2024-03-23T08:15:39;2.47;;;2.28;;
66087;SDS011;52872;52.994;6.940;2024-03-23T08:18:05;4.25;;;1.83;;
66087;SDS011;52872;52.994;6.940;2024-03-23T08:20:31;2.17;;;1.63;;
66087;SDS011;52872;52.994;6.940;2024-03-23T08:22:57;3.38;;;1.45;;
66087;SDS011;52872;52.994;6.940;2024-03-23T08:25:23;3.17;;;2.83;;
66087;SDS011;52872;52.994;6.940;2024-03-23T08:27:49;8.00;;;2.67;;
66087;SDS011;52872;52.994;6.940;2024-03-23T08:30:15;3.03;;;2.22;;
66087;SDS011;52872;52.994;6.940;2024-03-23T08:32:41;7.78;;;2.40;;
66087;SDS011;52872;52.994;6.940;2024-03-23T08:35:07;3.63;;;2.10;;
66087;SDS011;52872;52.994;6.940;2024-03-23T08:37:34;7.07;;;2.25;;
66087;SDS011;52872;52.994;6.940;2024-03-23T08:40:00;3.47;;;1.50;;
66087;SDS011;52872;52.994;6.940;2024-03-23T08:42:26;3.25;;;1.70;;
66087;SDS011;52872;52.994;6.940;2024-03-23T08:44:52;5.03;;;1.95;;
66087;SDS011;52872;52.994;6.940;2024-03-23T08:47:18;2.47;;;1.98;;
66087;SDS011;52872;52.994;6.940;2024-03-23T08:49:44;3.40;;;1.58;;
66087;SDS011;52872;52.994;6.940;2024-03-23T08:52:10;10.75;;;1.98;;
66087;SDS011;52872;52.994;6.940;2024-03-23T08:54:36;5.80;;;2.15;;
66087;SDS011;52872;52.994;6.940;2024-03-23T08:57:02;5.25;;;2.20;;
66087;SDS011;52872;52.994;6.940;2024-03-23T08:59:28;5.97;;;2.75;;
66087;SDS011;52872;52.994;6.940;2024-03-23T09:01:54;4.97;;;1.55;;
66087;SDS011;52872;52.994;6.940;2024-03-23T09:04:20;4.13;;;1.65;;
66087;SDS011;52872;52.994;6.940;2024-03-23T09:06:46;7.32;;;2.25;;
66087;SDS011;52872;52.994;6.940;2024-03-23T09:09:12;3.75;;;1.67;;
66087;SDS011;52872;52.994;6.940;2024-03-23T09:11:38;4.70;;;1.80;;
66087;SDS011;52872;52.994;6.940;2024-03-23T09:14:04;5.53;;;2.70;;
66087;SDS011;52872;52.994;6.940;2024-03-23T09:16:31;3.22;;;2.33;;
66087;SDS011;52872;52.994;6.940;2024-03-23T09:18:57;7.15;;;1.50;;
66087;SDS011;52872;52.994;6.940;2024-03-23T09:21:23;4.28;;;2.00;;
66087;SDS011;52872;52.994;6.940;2024-03-23T09:23:49;1.95;;;1.25;;
66087;SDS011;52872;52.994;6.940;2024-03-23T09:26:15;5.90;;;2.17;;
66087;SDS011;52872;52.994;6.940;2024-03-23T09:28:41;7.47;;;2.00;;
66087;SDS011;52872;52.994;6.940;2024-03-23T09:31:07;5.97;;;1.60;;
66087;SDS011;52872;52.994;6.940;2024-03-23T09:33:34;3.53;;;1.60;;
66087;SDS011;52872;52.994;6.940;2024-03-23T09:36:04;6.93;;;2.45;;
66087;SDS011;52872;52.994;6.940;2024-03-23T09:38:30;6.88;;;2.28;;
66087;SDS011;52872;52.994;6.940;2024-03-23T09:40:57;3.83;;;2.22;;
66087;SDS011;52872;52.994;6.940;2024-03-23T09:43:24;4.65;;;1.75;;
66087;SDS011;52872;52.994;6.940;2024-03-23T09:45:51;3.83;;;2.33;;
66087;SDS011;52872;52.994;6.940;2024-03-23T09:48:18;6.18;;;1.85;;
66087;SDS011;52872;52.994;6.940;2024-03-23T09:50:44;4.57;;;2.00;;
66087;SDS011;52872;52.994;6.940;2024-03-23T09:53:12;3.88;;;2.05;;
66087;SDS011;52872;52.994;6.940;2024-03-23T09:55:39;7.65;;;3.20;;
66087;SDS011;52872;52.994;6.940;2024-03-23T09:58:06;9.35;;;3.20;;
66087;SDS011;52872;52.994;6.940;2024-03-23T10:00:34;2.33;;;1.42;;
66087;SDS011;52872;52.994;6.940;2024-03-23T10:03:00;4.50;;;2.00;;
66087;SDS011;52872;52.994;6.940;2024-03-23T10:05:30;5.22;;;1.35;;
66087;SDS011;52872;52.994;6.940;2024-03-23T10:10:41;7.03;;;3.10;;
66087;SDS011;52872;52.994;6.940;2024-03-23T10:13:07;3.58;;;2.55;;
66087;SDS011;52872;52.994;6.940;2024-03-23T10:15:34;3.58;;;2.22;;
66087;SDS011;52872;52.994;6.940;2024-03-23T10:18:22;3.85;;;1.73;;
66087;SDS011;52872;52.994;6.940;2024-03-23T10:20:50;4.70;;;2.42;;
66087;SDS011;52872;52.994;6.940;2024-03-23T10:23:17;5.95;;;2.38;;
66087;SDS011;52872;52.994;6.940;2024-03-23T10:25:44;5.78;;;2.25;;
66087;SDS011;52872;52.994;6.940;2024-03-23T10:28:11;10.55;;;3.38;;
66087;SDS011;52872;52.994;6.940;2024-03-23T10:30:37;6.35;;;2.30;;
66087;SDS011;52872;52.994;6.940;2024-03-23T10:33:10;5.50;;;2.97;;
66087;SDS011;52872;52.994;6.940;2024-03-23T10:35:37;5.10;;;2.25;;
66087;SDS011;52872;52.994;6.940;2024-03-23T10:38:07;8.20;;;1.83;;
66087;SDS011;52872;52.994;6.940;2024-03-23T10:40:36;5.38;;;2.72;;
66087;SDS011;52872;52.994;6.940;2024-03-23T10:43:03;8.32;;;2.20;;
66087;SDS011;52872;52.994;6.940;2024-03-23T10:45:30;7.55;;;2.17;;
66087;SDS011;52872;52.994;6.940;2024-03-23T10:47:56;6.60;;;2.13;;
66087;SDS011;52872;52.994;6.940;2024-03-23T10:50:22;4.45;;;2.05;;
66087;SDS011;52872;52.994;6.940;2024-03-23T10:52:49;2.13;;;1.38;;
66087;SDS011;52872;52.994;6.940;2024-03-23T10:55:18;4.93;;;2.13;;
66087;SDS011;52872;52.994;6.940;2024-03-23T10:57:50;3.15;;;2.13;;
66087;SDS011;52872;52.994;6.940;2024-03-23T11:00:19;4.72;;;1.33;;
66087;SDS011;52872;52.994;6.940;2024-03-23T11:02:50;6.70;;;2.13;;
66087;SDS011;52872;52.994;6.940;2024-03-23T11:05:49;3.17;;;1.67;;
66087;SDS011;52872;52.994;6.940;2024-03-23T11:11:20;6.38;;;2.30;;
66087;SDS011;52872;52.994;6.940;2024-03-23T11:13:48;5.55;;;1.58;;
66087;SDS011;52872;52.994;6.940;2024-03-23T11:16:22;1.80;;;1.00;;
66087;SDS011;52872;52.994;6.940;2024-03-23T11:22:02;2.13;;;0.88;;
66087;SDS011;52872;52.994;6.940;2024-03-23T11:24:29;2.72;;;1.20;;
66087;SDS011;52872;52.994;6.940;2024-03-23T11:26:55;1.60;;;0.77;;
66087;SDS011;52872;52.994;6.940;2024-03-23T11:29:21;4.10;;;1.45;;
66087;SDS011;52872;52.994;6.940;2024-03-23T11:31:47;1.52;;;1.08;;
66087;SDS011;52872;52.994;6.940;2024-03-23T11:34:17;1.63;;;1.23;;
66087;SDS011;52872;52.994;6.940;2024-03-23T11:36:44;2.70;;;1.30;;
66087;SDS011;52872;52.994;6.940;2024-03-23T11:39:11;3.83;;;1.67;;
66087;SDS011;52872;52.994;6.940;2024-03-23T11:42:15;2.85;;;1.15;;
66087;SDS011;52872;52.994;6.940;2024-03-23T11:44:34;2.83;;;1.33;;
66087;SDS011;52872;52.994;6.940;2024-03-23T11:47:07;4.32;;;1.30;;
66087;SDS011;52872;52.994;6.940;2024-03-23T11:49:34;7.72;;;2.58;;
66087;SDS011;52872;52.994;6.940;2024-03-23T11:52:06;5.47;;;1.70;;
66087;SDS011;52872;52.994;6.940;2024-03-23T11:54:32;2.47;;;1.55;;
66087;SDS011;52872;52.994;6.940;2024-03-23T11:57:03;2.53;;;1.33;;
66087;SDS011;52872;52.994;6.940;2024-03-23T11:59:37;2.78;;;1.52;;
66087;SDS011;52872;52.994;6.940;2024-03-23T12:02:12;2.45;;;1.35;;
66087;SDS011;52872;52.994;6.940;2024-03-23T12:04:42;4.30;;;1.08;;
66087;SDS011;52872;52.994;6.940;2024-03-23T12:09:45;4.57;;;0.98;;
66087;SDS011;52872;52.994;6.940;2024-03-23T12:12:18;1.42;;;0.63;;
66087;SDS011;52872;52.994;6.940;2024-03-23T12:14:44;1.73;;;0.80;;
66087;SDS011;52872;52.994;6.940;2024-03-23T12:17:26;2.13;;;1.70;;
66087;SDS011;52872;52.994;6.940;2024-03-23T12:19:52;4.88;;;1.65;;
66087;SDS011;52872;52.994;6.940;2024-03-23T12:22:21;1.83;;;1.00;;
66087;SDS011;52872;52.994;6.940;2024-03-23T12:24:48;1.10;;;0.65;;
66087;SDS011;52872;52.994;6.940;2024-03-23T12:27:14;2.55;;;1.48;;
66087;SDS011;52872;52.994;6.940;2024-03-23T12:29:41;1.05;;;1.05;;
66087;SDS011;52872;52.994;6.940;2024-03-23T12:32:08;3.47;;;0.98;;
66087;SDS011;52872;52.994;6.940;2024-03-23T12:34:34;3.50;;;1.42;;
66087;SDS011;52872;52.994;6.940;2024-03-23T12:37:00;4.78;;;2.33;;
66087;SDS011;52872;52.994;6.940;2024-03-23T12:39:26;3.72;;;1.52;;
66087;SDS011;52872;52.994;6.940;2024-03-23T12:41:52;4.13;;;1.35;;
66087;SDS011;52872;52.994;6.940;2024-03-23T12:44:19;3.10;;;0.80;;
66087;SDS011;52872;52.994;6.940;2024-03-23T12:46:45;4.68;;;1.63;;
66087;SDS011;52872;52.994;6.940;2024-03-23T12:49:11;3.47;;;1.30;;
66087;SDS011;52872;52.994;6.940;2024-03-23T12:51:37;1.30;;;1.25;;
66087;SDS011;52872;52.994;6.940;2024-03-23T12:54:03;4.10;;;1.20;;
66087;SDS011;52872;52.994;6.940;2024-03-23T12:56:29;3.15;;;1.17;;
66087;SDS011;52872;52.994;6.940;2024-03-23T12:58:56;1.58;;;1.08;;
66087;SDS011;52872;52.994;6.940;2024-03-23T13:01:26;3.35;;;2.08;;
66087;SDS011;52872;52.994;6.940;2024-03-23T13:03:52;7.28;;;2.45;;
66087;SDS011;52872;52.994;6.940;2024-03-23T13:06:18;4.60;;;1.60;;
66087;SDS011;52872;52.994;6.940;2024-03-23T13:08:45;2.22;;;1.50;;
66087;SDS011;52872;52.994;6.940;2024-03-23T13:11:11;3.75;;;1.63;;
66087;SDS011;52872;52.994;6.940;2024-03-23T13:13:38;10.73;;;3.47;;
66087;SDS011;52872;52.994;6.940;2024-03-23T13:16:05;5.90;;;1.60;;
66087;SDS011;52872;52.994;6.940;2024-03-23T13:18:31;10.05;;;1.80;;
66087;SDS011;52872;52.994;6.940;2024-03-23T13:20:58;9.40;;;1.95;;
66087;SDS011;52872;52.994;6.940;2024-03-23T13:23:24;3.17;;;2.03;;
66087;SDS011;52872;52.994;6.940;2024-03-23T13:25:54;3.83;;;1.73;;
66087;SDS011;52872;52.994;6.940;2024-03-23T13:28:21;4.40;;;2.42;;
66087;SDS011;52872;52.994;6.940;2024-03-23T13:30:54;2.25;;;1.15;;
66087;SDS011;52872;52.994;6.940;2024-03-23T13:33:21;3.55;;;2.05;;
66087;SDS011;52872;52.994;6.940;2024-03-23T13:35:53;4.40;;;1.55;;
66087;SDS011;52872;52.994;6.940;2024-03-23T13:38:21;12.95;;;3.78;;
66087;SDS011;52872;52.994;6.940;2024-03-23T13:40:51;5.70;;;1.33;;
66087;SDS011;52872;52.994;6.940;2024-03-23T13:43:25;6.55;;;2.28;;
66087;SDS011;52872;52.994;6.940;2024-03-23T13:45:58;9.50;;;2.03;;
66087;SDS011;52872;52.994;6.940;2024-03-23T13:48:26;4.30;;;1.95;;
66087;SDS011;52872;52.994;6.940;2024-03-23T13:50:59;4.88;;;2.70;;
66087;SDS011;52872;52.994;6.940;2024-03-23T13:53:26;4.53;;;2.22;;
66087;SDS011;52872;52.994;6.940;2024-03-23T13:55:52;10.13;;;3.03;;
66087;SDS011;52872;52.994;6.940;2024-03-23T13:58:18;8.35;;;2.70;;
66087;SDS011;52872;52.994;6.940;2024-03-23T14:00:45;6.82;;;1.50;;
66087;SDS011;52872;52.994;6.940;2024-03-23T14:03:11;3.83;;;1.85;;
66087;SDS011;52872;52.994;6.940;2024-03-23T14:05:39;4.05;;;1.52;;
66087;SDS011;52872;52.994;6.940;2024-03-23T14:08:06;7.95;;;3.33;;
66087;SDS011;52872;52.994;6.940;2024-03-23T14:10:35;6.22;;;2.75;;
66087;SDS011;52872;52.994;6.940;2024-03-23T14:13:02;3.50;;;1.73;;
66087;SDS011;52872;52.994;6.940;2024-03-23T14:15:28;5.93;;;2.10;;
66087;SDS011;52872;52.994;6.940;2024-03-23T14:17:56;3.75;;;2.47;;
66087;SDS011;52872;52.994;6.940;2024-03-23T14:20:22;5.85;;;3.25;;
66087;SDS011;52872;52.994;6.940;2024-03-23T14:22:51;6.15;;;3.25;;
66087;SDS011;52872;52.994;6.940;2024-03-23T14:25:18;5.18;;;1.88;;
66087;SDS011;52872;52.994;6.940;2024-03-23T14:27:44;3.85;;;1.33;;
66087;SDS011;52872;52.994;6.940;2024-03-23T14:30:11;4.18;;;2.47;;
66087;SDS011;52872;52.994;6.940;2024-03-23T14:32:38;3.90;;;2.10;;
66087;SDS011;52872;52.994;6.940;2024-03-23T14:35:04;11.65;;;2.25;;
66087;SDS011;52872;52.994;6.940;2024-03-23T14:37:31;5.15;;;2.38;;
66087;SDS011;52872;52.994;6.940;2024-03-23T14:39:57;4.57;;;1.30;;
66087;SDS011;52872;52.994;6.940;2024-03-23T14:42:24;5.22;;;1.30;;
66087;SDS011;52872;52.994;6.940;2024-03-23T14:44:51;3.40;;;1.83;;
66087;SDS011;52872;52.994;6.940;2024-03-23T14:47:19;7.07;;;2.63;;
66087;SDS011;52872;52.994;6.940;2024-03-23T14:49:45;2.78;;;1.83;;
66087;SDS011;52872;52.994;6.940;2024-03-23T14:54:42;3.75;;;1.92;;
66087;SDS011;52872;52.994;6.940;2024-03-23T14:57:09;7.35;;;1.60;;
66087;SDS011;52872;52.994;6.940;2024-03-23T14:59:35;5.05;;;1.48;;
66087;SDS011;52872;52.994;6.940;2024-03-23T15:02:09;7.72;;;2.22;;
66087;SDS011;52872;52.994;6.940;2024-03-23T15:04:38;8.30;;;1.52;;
66087;SDS011;52872;52.994;6.940;2024-03-23T15:07:07;7.32;;;2.92;;
66087;SDS011;52872;52.994;6.940;2024-03-23T15:09:33;8.25;;;1.60;;
66087;SDS011;52872;52.994;6.940;2024-03-23T15:11:59;4.13;;;2.65;;
66087;SDS011;52872;52.994;6.940;2024-03-23T15:14:25;4.32;;;3.05;;
66087;SDS011;52872;52.994;6.940;2024-03-23T15:16:51;5.72;;;2.15;;
66087;SDS011;52872;52.994;6.940;2024-03-23T15:19:18;6.28;;;2.30;;
66087;SDS011;52872;52.994;6.940;2024-03-23T15:21:44;5.50;;;1.65;;
66087;SDS011;52872;52.994;6.940;2024-03-23T15:24:10;3.42;;;1.30;;
66087;SDS011;52872;52.994;6.940;2024-03-23T15:26:38;2.10;;;1.30;;
66087;SDS011;52872;52.994;6.940;2024-03-23T15:29:05;3.65;;;1.02;;
66087;SDS011;52872;52.994;6.940;2024-03-23T15:31:40;4.78;;;1.90;;
66087;SDS011;52872;52.994;6.940;2024-03-23T15:34:06;3.85;;;1.27;;
66087;SDS011;52872;52.994;6.940;2024-03-23T15:36:36;3.67;;;1.50;;
66087;SDS011;52872;52.994;6.940;2024-03-23T15:39:04;7.47;;;1.40;;
66087;SDS011;52872;52.994;6.940;2024-03-23T15:41:30;5.57;;;2.03;;
66087;SDS011;52872;52.994;6.940;2024-03-23T15:43:57;3.72;;;1.90;;
66087;SDS011;52872;52.994;6.940;2024-03-23T15:46:23;4.57;;;0.98;;
66087;SDS011;52872;52.994;6.940;2024-03-23T15:48:50;1.88;;;1.15;;
66087;SDS011;52872;52.994;6.940;2024-03-23T15:51:16;2.58;;;0.93;;
66087;SDS011;52872;52.994;6.940;2024-03-23T15:53:43;8.90;;;1.88;;